createdAt,value
2017-01-08T00:00:13.235Z,17.19
2017-01-08T00:01:12.258Z,16.82
2017-01-08T00:02:12.846Z,16.63
2017-01-08T00:03:13.449Z,16.57
2017-01-08T00:04:13.324Z,16.55
2017-01-08T00:05:13.265Z,16.52
2017-01-08T00:06:13.585Z,16.53
2017-01-08T00:07:12.412Z,16.50
2017-01-08T00:08:12.930Z,16.49
2017-01-08T00:09:12.718Z,16.48
2017-01-08T00:10:12.459Z,16.46
2017-01-08T00:11:13.197Z,16.49
2017-01-08T00:12:14.014Z,16.49
2017-01-08T00:13:13.273Z,16.51
2017-01-08T00:14:12.239Z,16.48
2017-01-08T00:15:12.422Z,16.49
2017-01-08T00:16:13.033Z,16.50
2017-01-08T00:17:13.789Z,16.50
2017-01-08T00:18:11.727Z,16.50
2017-01-08T00:19:12.354Z,16.51
2017-01-08T00:20:12.902Z,16.49
2017-01-08T00:21:13.873Z,16.50
2017-01-08T00:22:12.673Z,16.50
2017-01-08T00:23:14.291Z,16.50
2017-01-08T00:24:11.998Z,16.50
2017-01-08T00:25:12.725Z,16.50
2017-01-08T00:26:13.446Z,16.49
2017-01-08T00:27:13.399Z,16.50
2017-01-08T00:28:12.895Z,16.51
2017-01-08T00:29:12.422Z,16.57
2017-01-08T00:30:14.034Z,16.50
2017-01-08T00:31:12.806Z,16.53
2017-01-08T00:32:12.011Z,16.50
2017-01-08T00:33:13.687Z,16.52
2017-01-08T00:34:13.644Z,16.53
2017-01-08T00:35:13.342Z,16.57
2017-01-08T00:36:12.559Z,16.47
2017-01-08T00:37:12.435Z,16.47
2017-01-08T00:38:13.471Z,16.48
2017-01-08T00:39:10.796Z,16.47
2017-01-08T00:40:11.718Z,16.47
2017-01-08T00:41:12.281Z,16.48
2017-01-08T00:42:12.986Z,16.47
2017-01-08T00:43:12.666Z,16.46
2017-01-08T00:44:17.030Z,16.44
2017-01-08T00:45:13.401Z,16.45
2017-01-08T00:46:12.922Z,16.44
2017-01-08T00:47:12.008Z,16.45
2017-01-08T00:48:12.629Z,16.45
2017-01-08T00:49:14.064Z,16.45
2017-01-08T00:50:10.857Z,16.45
2017-01-08T00:51:12.632Z,16.44
2017-01-08T00:52:11.741Z,16.43
2017-01-08T00:53:12.558Z,16.44
2017-01-08T00:54:12.554Z,16.43
2017-01-08T00:55:13.283Z,16.43
2017-01-08T00:56:15.241Z,16.43
2017-01-08T00:57:11.262Z,16.42
2017-01-08T00:58:13.056Z,16.45
2017-01-08T00:59:12.071Z,16.42
2017-01-08T01:00:13.757Z,16.42
2017-01-08T01:01:13.144Z,16.49
2017-01-08T01:02:14.574Z,16.42
2017-01-08T01:03:14.187Z,16.41
2017-01-08T01:04:13.545Z,16.41
2017-01-08T01:05:15.753Z,16.41
2017-01-08T01:06:10.993Z,16.41
2017-01-08T01:07:13.199Z,16.42
2017-01-08T01:08:15.169Z,16.40
2017-01-08T01:09:12.233Z,16.41
2017-01-08T01:10:12.374Z,16.42
2017-01-08T01:11:12.812Z,16.49
2017-01-08T01:12:14.271Z,16.41
2017-01-08T01:13:14.013Z,16.42
2017-01-08T01:14:11.234Z,16.41
2017-01-08T01:15:12.610Z,16.93
2017-01-08T01:16:10.199Z,16.99
2017-01-08T01:17:12.494Z,17.01
2017-01-08T01:18:13.408Z,17.02
2017-01-08T01:19:12.488Z,17.02
2017-01-08T01:20:14.112Z,16.50
2017-01-08T01:21:15.186Z,16.46
2017-01-08T01:22:13.522Z,16.43
2017-01-08T01:23:10.555Z,16.42
2017-01-08T01:24:13.448Z,16.94
2017-01-08T01:25:11.571Z,16.99
2017-01-08T01:26:13.030Z,17.02
2017-01-08T01:27:12.120Z,17.03
2017-01-08T01:28:12.735Z,17.04
2017-01-08T01:29:12.586Z,17.05
2017-01-08T01:30:14.189Z,17.05
2017-01-08T01:31:14.375Z,17.05
2017-01-08T01:32:14.699Z,16.54
2017-01-08T01:33:11.285Z,16.47
2017-01-08T01:34:13.762Z,16.51
2017-01-08T01:35:15.763Z,16.43
2017-01-08T01:36:13.227Z,16.42
2017-01-08T01:37:12.258Z,16.42
2017-01-08T01:38:15.697Z,16.42
2017-01-08T01:39:12.696Z,16.42
2017-01-08T01:40:11.905Z,16.41
2017-01-08T01:41:11.914Z,16.42
2017-01-08T01:42:13.666Z,16.49
2017-01-08T01:43:13.181Z,16.44
2017-01-08T01:44:13.807Z,16.43
2017-01-08T01:45:12.085Z,16.42
2017-01-08T01:46:12.838Z,16.45
2017-01-08T01:47:12.693Z,16.40
2017-01-08T01:48:12.269Z,16.40
2017-01-08T01:49:12.417Z,16.40
2017-01-08T01:50:13.785Z,16.40
2017-01-08T01:51:11.964Z,16.39
2017-01-08T01:52:10.284Z,16.38
2017-01-08T01:53:13.072Z,16.39
2017-01-08T01:54:13.772Z,16.39
2017-01-08T01:55:10.666Z,16.39
2017-01-08T01:56:12.980Z,16.40
2017-01-08T01:57:14.817Z,16.37
2017-01-08T01:58:10.736Z,16.38
2017-01-08T01:59:12.884Z,16.38
2017-01-08T02:00:12.756Z,16.40
2017-01-08T02:01:14.149Z,16.56
2017-01-08T02:02:12.797Z,16.43
2017-01-08T02:03:13.737Z,16.40
2017-01-08T02:04:14.453Z,16.39
2017-01-08T02:05:12.890Z,16.41
2017-01-08T02:06:13.213Z,16.38
2017-01-08T02:07:12.939Z,16.38
2017-01-08T02:08:13.486Z,16.39
2017-01-08T02:09:13.675Z,16.38
2017-01-08T02:10:14.018Z,16.36
2017-01-08T02:11:12.796Z,16.38
2017-01-08T02:12:09.070Z,16.37
2017-01-08T02:13:14.374Z,16.36
2017-01-08T02:14:13.020Z,16.36
2017-01-08T02:15:12.576Z,16.45
2017-01-08T02:16:12.654Z,16.37
2017-01-08T02:17:12.869Z,16.37
2017-01-08T02:18:12.649Z,16.88
2017-01-08T02:19:12.384Z,16.95
2017-01-08T02:20:13.125Z,16.96
2017-01-08T02:21:12.754Z,16.99
2017-01-08T02:22:11.748Z,16.99
2017-01-08T02:23:13.951Z,16.99
2017-01-08T02:24:12.646Z,17.01
2017-01-08T02:25:09.260Z,16.48
2017-01-08T02:26:12.302Z,16.43
2017-01-08T02:27:13.244Z,16.40
2017-01-08T02:28:12.987Z,16.37
2017-01-08T02:29:12.210Z,16.37
2017-01-08T02:30:12.816Z,16.37
2017-01-08T02:31:14.830Z,16.37
2017-01-08T02:32:12.460Z,16.36
2017-01-08T02:33:14.070Z,16.35
2017-01-08T02:34:13.124Z,16.37
2017-01-08T02:35:12.074Z,16.89
2017-01-08T02:36:14.950Z,16.93
2017-01-08T02:37:12.996Z,16.43
2017-01-08T02:38:14.410Z,16.42
2017-01-08T02:39:11.307Z,16.37
2017-01-08T02:40:13.746Z,16.90
2017-01-08T02:41:11.735Z,16.94
2017-01-08T02:42:13.257Z,16.96
2017-01-08T02:43:13.021Z,16.97
2017-01-08T02:44:12.965Z,16.96
2017-01-08T02:45:13.253Z,16.97
2017-01-08T02:46:13.897Z,16.97
2017-01-08T02:47:12.506Z,16.96
2017-01-08T02:48:12.583Z,16.62
2017-01-08T02:49:12.538Z,16.44
2017-01-08T02:50:12.980Z,16.45
2017-01-08T02:51:12.876Z,16.36
2017-01-08T02:52:13.375Z,16.35
2017-01-08T02:53:13.211Z,16.39
2017-01-08T02:54:14.863Z,16.33
2017-01-08T02:55:12.004Z,16.32
2017-01-08T02:56:13.459Z,16.32
2017-01-08T02:57:11.149Z,16.32
2017-01-08T02:58:14.408Z,16.33
2017-01-08T02:59:12.813Z,16.40
2017-01-08T03:00:13.164Z,16.32
2017-01-08T03:01:13.172Z,16.33
2017-01-08T03:02:11.747Z,16.32
2017-01-08T03:03:12.768Z,16.33
2017-01-08T03:04:11.919Z,16.33
2017-01-08T03:05:10.551Z,16.33
2017-01-08T03:06:15.172Z,16.33
2017-01-08T03:07:12.863Z,16.40
2017-01-08T03:08:11.836Z,16.33
2017-01-08T03:09:13.986Z,16.34
2017-01-08T03:10:13.588Z,16.32
2017-01-08T03:11:13.917Z,16.33
2017-01-08T03:12:13.624Z,16.33
2017-01-08T03:13:11.704Z,16.33
2017-01-08T03:14:12.286Z,16.34
2017-01-08T03:15:13.205Z,16.33
2017-01-08T03:16:13.504Z,16.34
2017-01-08T03:17:13.555Z,16.34
2017-01-08T03:18:13.191Z,16.33
2017-01-08T03:19:15.361Z,16.31
2017-01-08T03:20:13.421Z,16.34
2017-01-08T03:21:13.021Z,16.85
2017-01-08T03:22:12.963Z,16.91
2017-01-08T03:23:14.107Z,16.93
2017-01-08T03:24:13.049Z,16.94
2017-01-08T03:25:13.010Z,16.97
2017-01-08T03:26:12.631Z,16.96
2017-01-08T03:27:11.958Z,16.45
2017-01-08T03:28:12.117Z,16.40
2017-01-08T03:29:12.789Z,16.39
2017-01-08T03:30:11.799Z,16.37
2017-01-08T03:31:13.448Z,16.37
2017-01-08T03:32:12.921Z,16.40
2017-01-08T03:33:11.559Z,16.34
2017-01-08T03:34:12.589Z,16.35
2017-01-08T03:35:11.664Z,16.35
2017-01-08T03:36:12.286Z,16.35
2017-01-08T03:37:13.939Z,16.35
2017-01-08T03:38:14.976Z,16.34
2017-01-08T03:39:12.844Z,16.35
2017-01-08T03:40:12.008Z,16.35
2017-01-08T03:41:13.818Z,16.34
2017-01-08T03:42:11.758Z,16.34
2017-01-08T03:43:13.120Z,16.35
2017-01-08T03:44:12.561Z,16.42
2017-01-08T03:45:14.201Z,16.34
2017-01-08T03:46:14.321Z,16.35
2017-01-08T03:47:14.387Z,16.35
2017-01-08T03:48:12.439Z,16.34
2017-01-08T03:49:12.991Z,16.33
2017-01-08T03:50:13.743Z,16.34
2017-01-08T03:51:12.918Z,16.32
2017-01-08T03:52:14.230Z,16.32
2017-01-08T03:53:12.816Z,16.32
2017-01-08T03:54:12.485Z,16.33
2017-01-08T03:55:13.958Z,16.33
2017-01-08T03:56:12.550Z,16.35
2017-01-08T03:57:12.574Z,16.35
2017-01-08T03:58:11.777Z,16.56
2017-01-08T03:59:13.593Z,16.40
2017-01-08T04:00:13.638Z,16.37
2017-01-08T04:01:11.710Z,16.35
2017-01-08T04:02:11.765Z,16.33
2017-01-08T04:03:10.644Z,16.32
2017-01-08T04:04:12.531Z,16.33
2017-01-08T04:05:13.164Z,16.33
2017-01-08T04:06:12.794Z,16.33
2017-01-08T04:07:12.044Z,16.32
2017-01-08T04:08:13.015Z,16.32
2017-01-08T04:09:14.187Z,16.32
2017-01-08T04:10:13.130Z,16.32
2017-01-08T04:11:12.138Z,16.31
2017-01-08T04:12:12.203Z,16.31
2017-01-08T04:13:13.995Z,16.31
2017-01-08T04:14:12.071Z,16.31
2017-01-08T04:15:12.107Z,16.31
2017-01-08T04:16:13.422Z,16.30
2017-01-08T04:17:13.920Z,16.29
2017-01-08T04:18:12.960Z,16.31
2017-01-08T04:19:13.197Z,16.30
2017-01-08T04:20:12.868Z,16.39
2017-01-08T04:21:12.085Z,16.83
2017-01-08T04:22:12.764Z,16.88
2017-01-08T04:23:11.864Z,16.92
2017-01-08T04:24:12.594Z,16.92
2017-01-08T04:25:12.289Z,16.93
2017-01-08T04:26:11.090Z,16.94
2017-01-08T04:27:13.735Z,16.92
2017-01-08T04:28:12.698Z,16.93
2017-01-08T04:29:13.993Z,16.95
2017-01-08T04:30:09.672Z,16.94
2017-01-08T04:31:12.667Z,16.96
2017-01-08T04:32:12.510Z,16.98
2017-01-08T04:33:10.724Z,17.00
2017-01-08T04:34:12.161Z,16.45
2017-01-08T04:35:12.801Z,16.39
2017-01-08T04:36:09.047Z,16.36
2017-01-08T04:37:12.645Z,16.40
2017-01-08T04:38:11.835Z,16.33
2017-01-08T04:39:11.960Z,16.32
2017-01-08T04:40:14.834Z,16.31
2017-01-08T04:41:12.619Z,16.30
2017-01-08T04:42:12.486Z,16.84
2017-01-08T04:43:15.435Z,16.51
2017-01-08T04:44:13.129Z,16.37
2017-01-08T04:45:16.764Z,16.33
2017-01-08T04:46:13.396Z,16.33
2017-01-08T04:47:14.522Z,16.30
2017-01-08T04:48:13.001Z,16.35
2017-01-08T04:49:12.946Z,16.30
2017-01-08T04:50:12.730Z,16.30
2017-01-08T04:51:12.746Z,16.28
2017-01-08T04:52:12.381Z,16.27
2017-01-08T04:53:13.225Z,16.30
2017-01-08T04:54:13.688Z,16.27
2017-01-08T04:55:12.323Z,16.30
2017-01-08T04:56:12.429Z,16.27
2017-01-08T04:57:13.068Z,16.27
2017-01-08T04:58:12.709Z,16.27
2017-01-08T04:59:11.653Z,16.27
2017-01-08T05:00:11.792Z,16.28
2017-01-08T05:01:12.787Z,16.27
2017-01-08T05:02:11.926Z,16.27
2017-01-08T05:03:13.668Z,16.28
2017-01-08T05:04:10.670Z,16.25
2017-01-08T05:05:11.858Z,16.27
2017-01-08T05:06:14.409Z,16.26
2017-01-08T05:07:10.976Z,16.27
2017-01-08T05:08:14.282Z,16.25
2017-01-08T05:09:13.043Z,16.27
2017-01-08T05:10:14.619Z,16.27
2017-01-08T05:11:12.348Z,16.36
2017-01-08T05:12:13.549Z,16.28
2017-01-08T05:13:12.413Z,16.32
2017-01-08T05:14:12.443Z,16.30
2017-01-08T05:15:13.444Z,16.29
2017-01-08T05:16:13.537Z,16.29
2017-01-08T05:17:13.510Z,16.29
2017-01-08T05:18:14.519Z,16.30
2017-01-08T05:19:10.534Z,16.29
2017-01-08T05:20:12.802Z,16.30
2017-01-08T05:21:12.372Z,16.36
2017-01-08T05:22:13.281Z,16.30
2017-01-08T05:23:12.400Z,16.30
2017-01-08T05:24:12.379Z,16.28
2017-01-08T05:25:17.327Z,16.29
2017-01-08T05:26:12.469Z,16.81
2017-01-08T05:27:13.684Z,16.86
2017-01-08T05:28:11.637Z,16.88
2017-01-08T05:29:14.010Z,16.91
2017-01-08T05:30:10.103Z,16.39
2017-01-08T05:31:12.910Z,16.34
2017-01-08T05:32:11.171Z,16.31
2017-01-08T05:33:11.323Z,16.29
2017-01-08T05:34:12.571Z,16.29
2017-01-08T05:35:12.167Z,16.30
2017-01-08T05:36:13.579Z,16.27
2017-01-08T05:37:11.795Z,16.28
2017-01-08T05:38:13.371Z,16.28
2017-01-08T05:39:13.091Z,16.29
2017-01-08T05:40:14.493Z,16.29
2017-01-08T05:41:12.522Z,16.29
2017-01-08T05:42:12.467Z,16.28
2017-01-08T05:43:11.067Z,16.28
2017-01-08T05:44:13.061Z,16.27
2017-01-08T05:45:12.099Z,16.28
2017-01-08T05:46:11.413Z,16.27
2017-01-08T05:47:14.178Z,16.27
2017-01-08T05:48:12.265Z,16.27
2017-01-08T05:49:13.339Z,16.27
2017-01-08T05:50:13.076Z,16.25
2017-01-08T05:51:14.794Z,16.24
2017-01-08T05:52:13.849Z,16.25
2017-01-08T05:53:10.396Z,16.24
2017-01-08T05:54:12.755Z,16.23
2017-01-08T05:55:13.045Z,16.23
2017-01-08T05:56:12.048Z,16.22
2017-01-08T05:57:13.758Z,16.22
2017-01-08T05:58:12.397Z,16.23
2017-01-08T05:59:12.456Z,16.21
2017-01-08T06:00:13.316Z,16.20
2017-01-08T06:01:12.939Z,16.21
2017-01-08T06:02:14.636Z,16.23
2017-01-08T06:03:12.120Z,16.23
2017-01-08T06:04:12.174Z,16.22
2017-01-08T06:05:14.297Z,16.22
2017-01-08T06:06:12.451Z,16.23
2017-01-08T06:07:11.424Z,16.22
2017-01-08T06:08:14.744Z,16.22
2017-01-08T06:09:12.808Z,16.22
2017-01-08T06:10:13.042Z,16.22
2017-01-08T06:11:13.610Z,16.22
2017-01-08T06:12:12.316Z,16.23
2017-01-08T06:13:09.501Z,16.20
2017-01-08T06:14:12.779Z,16.20
2017-01-08T06:15:10.916Z,16.17
2017-01-08T06:16:12.549Z,16.20
2017-01-08T06:17:13.339Z,16.74
2017-01-08T06:18:13.359Z,16.77
2017-01-08T06:19:12.530Z,16.80
2017-01-08T06:20:15.219Z,16.48
2017-01-08T06:21:10.297Z,16.31
2017-01-08T06:22:12.670Z,16.26
2017-01-08T06:23:12.387Z,16.24
2017-01-08T06:24:12.490Z,16.22
2017-01-08T06:25:09.695Z,16.74
2017-01-08T06:26:15.560Z,16.42
2017-01-08T06:27:11.845Z,16.29
2017-01-08T06:28:12.421Z,16.24
2017-01-08T06:29:12.458Z,16.22
2017-01-08T06:30:13.348Z,16.23
2017-01-08T06:31:13.096Z,16.20
2017-01-08T06:32:13.912Z,16.20
2017-01-08T06:33:11.949Z,16.19
2017-01-08T06:34:12.789Z,16.20
2017-01-08T06:35:13.589Z,16.19
2017-01-08T06:36:11.728Z,16.19
2017-01-08T06:37:12.951Z,16.18
2017-01-08T06:38:12.978Z,16.20
2017-01-08T06:39:12.762Z,16.19
2017-01-08T06:40:10.618Z,16.18
2017-01-08T06:41:12.406Z,16.71
2017-01-08T06:42:13.053Z,16.77
2017-01-08T06:43:12.698Z,16.81
2017-01-08T06:44:14.272Z,16.30
2017-01-08T06:45:12.201Z,16.23
2017-01-08T06:46:13.483Z,16.21
2017-01-08T06:47:13.004Z,16.19
2017-01-08T06:48:13.106Z,16.20
2017-01-08T06:49:12.937Z,16.21
2017-01-08T06:50:13.475Z,16.19
2017-01-08T06:51:14.066Z,16.19
2017-01-08T06:52:13.064Z,16.21
2017-01-08T06:53:12.823Z,16.21
2017-01-08T06:54:12.947Z,16.22
2017-01-08T06:55:10.372Z,16.23
2017-01-08T06:56:14.170Z,16.25
2017-01-08T06:57:09.598Z,16.26
2017-01-08T06:58:12.496Z,16.27
2017-01-08T06:59:12.624Z,16.28
2017-01-08T07:00:11.652Z,16.29
2017-01-08T07:01:09.431Z,16.29
2017-01-08T07:02:12.759Z,16.31
2017-01-08T07:03:12.695Z,16.32
2017-01-08T07:04:11.828Z,16.31
2017-01-08T07:05:12.574Z,16.32
2017-01-08T07:06:12.306Z,16.33
2017-01-08T07:07:12.843Z,16.39
2017-01-08T07:08:11.858Z,16.32
2017-01-08T07:09:12.043Z,16.33
2017-01-08T07:10:12.195Z,16.33
2017-01-08T07:11:12.927Z,16.32
2017-01-08T07:12:12.756Z,16.35
2017-01-08T07:13:11.072Z,16.32
2017-01-08T07:14:10.550Z,16.34
2017-01-08T07:15:11.965Z,16.33
2017-01-08T07:16:12.533Z,16.41
2017-01-08T07:17:10.125Z,16.86
2017-01-08T07:18:12.063Z,16.92
2017-01-08T07:19:12.759Z,16.96
2017-01-08T07:20:12.498Z,16.95
2017-01-08T07:21:13.824Z,16.97
2017-01-08T07:22:11.782Z,16.97
2017-01-08T07:23:12.315Z,16.61
2017-01-08T07:24:12.405Z,16.45
2017-01-08T07:25:12.468Z,16.40
2017-01-08T07:26:13.935Z,16.37
2017-01-08T07:27:12.801Z,16.38
2017-01-08T07:28:12.314Z,16.43
2017-01-08T07:29:11.153Z,16.34
2017-01-08T07:30:13.670Z,16.34
2017-01-08T07:31:11.831Z,16.34
2017-01-08T07:32:12.508Z,16.34
2017-01-08T07:33:11.245Z,16.34
2017-01-08T07:34:11.735Z,16.34
2017-01-08T07:35:12.430Z,16.42
2017-01-08T07:36:13.020Z,16.35
2017-01-08T07:37:13.270Z,16.36
2017-01-08T07:38:13.091Z,16.36
2017-01-08T07:39:12.632Z,16.34
2017-01-08T07:40:12.008Z,16.35
2017-01-08T07:41:12.145Z,16.35
2017-01-08T07:42:13.412Z,16.37
2017-01-08T07:43:14.746Z,16.35
2017-01-08T07:44:13.326Z,16.34
2017-01-08T07:45:12.906Z,16.34
2017-01-08T07:46:13.663Z,16.36
2017-01-08T07:47:11.934Z,16.35
2017-01-08T07:48:12.025Z,16.35
2017-01-08T07:49:14.331Z,16.35
2017-01-08T07:50:13.044Z,16.35
2017-01-08T07:51:12.567Z,16.38
2017-01-08T07:52:13.128Z,16.86
2017-01-08T07:53:14.226Z,16.40
2017-01-08T07:54:13.258Z,16.36
2017-01-08T07:55:12.826Z,16.35
2017-01-08T07:56:12.507Z,16.35
2017-01-08T07:57:12.623Z,16.35
2017-01-08T07:58:12.295Z,16.39
2017-01-08T07:59:12.898Z,16.38
2017-01-08T08:00:12.545Z,16.87
2017-01-08T08:01:12.904Z,16.90
2017-01-08T08:02:12.060Z,16.44
2017-01-08T08:03:12.142Z,16.41
2017-01-08T08:04:12.816Z,16.45
2017-01-08T08:05:11.856Z,16.38
2017-01-08T08:06:11.990Z,16.38
2017-01-08T08:07:12.574Z,16.37
2017-01-08T08:08:13.299Z,16.44
2017-01-08T08:09:13.085Z,16.38
2017-01-08T08:10:13.673Z,16.38
2017-01-08T08:11:13.392Z,16.37
2017-01-08T08:12:15.307Z,16.37
2017-01-08T08:13:13.928Z,16.37
2017-01-08T08:14:12.846Z,16.38
2017-01-08T08:15:10.810Z,16.36
2017-01-08T08:16:12.662Z,16.37
2017-01-08T08:17:12.755Z,16.40
2017-01-08T08:18:12.295Z,16.89
2017-01-08T08:19:12.995Z,16.95
2017-01-08T08:20:12.768Z,16.97
2017-01-08T08:21:11.851Z,16.99
2017-01-08T08:22:12.502Z,17.00
2017-01-08T08:23:12.953Z,16.68
2017-01-08T08:24:12.458Z,17.00
2017-01-08T08:25:12.487Z,16.64
2017-01-08T08:26:13.450Z,16.47
2017-01-08T08:27:14.288Z,16.44
2017-01-08T08:28:13.047Z,16.45
2017-01-08T08:29:14.032Z,16.42
2017-01-08T08:30:12.190Z,16.42
2017-01-08T08:31:12.350Z,16.41
2017-01-08T08:32:13.831Z,16.41
2017-01-08T08:33:13.499Z,16.41
2017-01-08T08:34:12.593Z,16.40
2017-01-08T08:35:11.874Z,16.39
2017-01-08T08:36:12.658Z,16.39
2017-01-08T08:37:12.502Z,16.39
2017-01-08T08:38:13.543Z,16.41
2017-01-08T08:39:12.613Z,16.41
2017-01-08T08:40:13.189Z,16.42
2017-01-08T08:41:11.097Z,16.40
2017-01-08T08:42:14.152Z,16.94
2017-01-08T08:43:10.782Z,16.97
2017-01-08T08:44:12.008Z,16.99
2017-01-08T08:45:12.934Z,17.00
2017-01-08T08:46:12.106Z,17.00
2017-01-08T08:47:12.766Z,17.00
2017-01-08T08:48:10.469Z,16.99
2017-01-08T08:49:11.704Z,17.00
2017-01-08T08:50:12.368Z,16.99
2017-01-08T08:51:12.489Z,16.64
2017-01-08T08:52:13.193Z,16.46
2017-01-08T08:53:12.867Z,16.49
2017-01-08T08:54:10.078Z,16.93
2017-01-08T08:55:14.075Z,16.60
2017-01-08T08:56:12.598Z,16.49
2017-01-08T08:57:12.118Z,16.96
2017-01-08T08:58:12.897Z,17.01
2017-01-08T08:59:14.834Z,17.04
2017-01-08T09:00:11.884Z,17.06
2017-01-08T09:01:11.938Z,17.05
2017-01-08T09:02:13.651Z,17.05
2017-01-08T09:03:13.449Z,17.05
2017-01-08T09:04:14.312Z,17.05
2017-01-08T09:05:14.074Z,17.03
2017-01-08T09:06:12.793Z,16.95
2017-01-08T09:07:12.358Z,16.87
2017-01-08T09:08:12.951Z,16.77
2017-01-08T09:09:12.094Z,16.24
2017-01-08T09:10:13.868Z,16.22
2017-01-08T09:11:13.562Z,16.17
2017-01-08T09:12:12.701Z,16.19
2017-01-08T09:13:11.476Z,16.21
2017-01-08T09:14:12.851Z,16.23
2017-01-08T09:15:12.502Z,16.25
2017-01-08T09:16:14.204Z,16.27
2017-01-08T09:17:12.910Z,16.29
2017-01-08T09:18:10.612Z,16.30
2017-01-08T09:19:12.232Z,16.85
2017-01-08T09:20:13.200Z,16.39
2017-01-08T09:21:13.272Z,16.37
2017-01-08T09:22:14.029Z,16.35
2017-01-08T09:23:13.299Z,16.34
2017-01-08T09:24:15.127Z,16.36
2017-01-08T09:25:12.824Z,16.37
2017-01-08T09:26:17.093Z,16.39
2017-01-08T09:27:12.980Z,16.42
2017-01-08T09:28:12.764Z,16.41
2017-01-08T09:29:12.113Z,16.45
2017-01-08T09:30:12.691Z,16.45
2017-01-08T09:31:11.834Z,16.96
2017-01-08T09:32:11.978Z,17.03
2017-01-08T09:33:11.899Z,16.52
2017-01-08T09:34:12.991Z,16.48
2017-01-08T09:35:12.622Z,16.47
2017-01-08T09:36:12.516Z,16.47
2017-01-08T09:37:15.084Z,16.47
2017-01-08T09:38:12.708Z,16.56
2017-01-08T09:39:11.710Z,17.01
2017-01-08T09:40:11.723Z,17.09
2017-01-08T09:41:10.617Z,17.12
2017-01-08T09:42:11.905Z,17.14
2017-01-08T09:43:12.673Z,17.16
2017-01-08T09:44:11.802Z,17.17
2017-01-08T09:45:11.879Z,17.19
2017-01-08T09:46:12.473Z,17.17
2017-01-08T09:47:12.595Z,17.18
2017-01-08T09:48:13.583Z,17.19
2017-01-08T09:49:13.378Z,17.21
2017-01-08T09:50:12.999Z,17.20
2017-01-08T09:51:12.486Z,17.21
2017-01-08T09:52:12.940Z,17.21
2017-01-08T09:53:12.703Z,17.22
2017-01-08T09:54:12.260Z,17.22
2017-01-08T09:55:12.264Z,17.22
2017-01-08T09:56:12.370Z,17.21
2017-01-08T09:57:13.068Z,17.28
2017-01-08T09:58:12.275Z,17.35
2017-01-08T09:59:13.007Z,17.38
2017-01-08T10:00:12.562Z,17.41
2017-01-08T10:01:10.879Z,17.41
2017-01-08T10:02:13.774Z,17.45
2017-01-08T10:03:12.329Z,17.47
2017-01-08T10:04:14.328Z,16.96
2017-01-08T10:05:13.934Z,16.94
2017-01-08T10:06:11.879Z,16.96
2017-01-08T10:07:13.415Z,16.98
2017-01-08T10:08:13.003Z,17.00
2017-01-08T10:09:12.019Z,17.04
2017-01-08T10:10:13.144Z,17.06
2017-01-08T10:11:12.220Z,17.12
2017-01-08T10:12:12.814Z,17.15
2017-01-08T10:13:13.243Z,17.17
2017-01-08T10:14:13.531Z,17.21
2017-01-08T10:15:14.439Z,17.24
2017-01-08T10:16:14.207Z,17.25
2017-01-08T10:17:12.532Z,17.30
2017-01-08T10:18:10.180Z,17.34
2017-01-08T10:19:10.934Z,17.36
2017-01-08T10:20:13.872Z,17.40
2017-01-08T10:21:12.668Z,17.43
2017-01-08T10:22:12.620Z,17.47
2017-01-08T10:23:08.977Z,17.44
2017-01-08T10:24:13.675Z,17.43
2017-01-08T10:25:13.771Z,17.45
2017-01-08T10:26:12.403Z,17.50
2017-01-08T10:27:13.033Z,17.53
2017-01-08T10:28:10.954Z,17.53
2017-01-08T10:29:12.294Z,17.54
2017-01-08T10:30:16.403Z,17.62
2017-01-08T10:31:13.241Z,17.64
2017-01-08T10:32:13.995Z,18.14
2017-01-08T10:33:13.067Z,17.64
2017-01-08T10:34:12.100Z,17.63
2017-01-08T10:35:09.363Z,17.57
2017-01-08T10:36:12.443Z,17.52
2017-01-08T10:37:12.879Z,17.45
2017-01-08T10:38:13.339Z,17.41
2017-01-08T10:39:12.387Z,17.37
2017-01-08T10:40:12.407Z,17.34
2017-01-08T10:41:11.108Z,17.32
2017-01-08T10:42:13.131Z,17.30
2017-01-08T10:43:12.198Z,17.27
2017-01-08T10:44:13.909Z,17.25
2017-01-08T10:45:12.376Z,17.23
2017-01-08T10:46:12.828Z,17.28
2017-01-08T10:47:12.086Z,17.20
2017-01-08T10:48:10.999Z,17.19
2017-01-08T10:49:11.561Z,17.71
2017-01-08T10:50:13.429Z,17.75
2017-01-08T10:51:13.952Z,17.24
2017-01-08T10:52:12.667Z,17.18
2017-01-08T10:53:13.430Z,17.16
2017-01-08T10:54:10.457Z,17.13
2017-01-08T10:55:09.902Z,17.12
2017-01-08T10:56:12.716Z,17.11
2017-01-08T10:57:12.571Z,17.17
2017-01-08T10:58:12.619Z,17.11
2017-01-08T10:59:13.284Z,17.13
2017-01-08T11:00:12.249Z,17.12
2017-01-08T11:01:14.989Z,17.11
2017-01-08T11:02:12.121Z,17.12
2017-01-08T11:03:13.891Z,17.12
2017-01-08T11:04:10.390Z,17.11
2017-01-08T11:05:13.530Z,17.10
2017-01-08T11:06:11.523Z,17.10
2017-01-08T11:07:11.314Z,17.63
2017-01-08T11:08:14.980Z,17.70
2017-01-08T11:09:12.846Z,17.72
2017-01-08T11:10:13.000Z,17.41
2017-01-08T11:11:11.834Z,17.75
2017-01-08T11:12:10.929Z,17.23
2017-01-08T11:13:12.688Z,17.25
2017-01-08T11:14:12.344Z,17.21
2017-01-08T11:15:14.084Z,17.13
2017-01-08T11:16:10.857Z,17.15
2017-01-08T11:17:12.820Z,17.68
2017-01-08T11:18:12.451Z,17.72
2017-01-08T11:19:12.551Z,17.73
2017-01-08T11:20:12.384Z,17.20
2017-01-08T11:21:13.041Z,17.14
2017-01-08T11:22:13.178Z,17.11
2017-01-08T11:23:12.731Z,17.15
2017-01-08T11:24:11.392Z,17.60
2017-01-08T11:25:09.881Z,17.67
2017-01-08T11:26:13.392Z,17.38
2017-01-08T11:27:12.925Z,17.25
2017-01-08T11:28:12.659Z,17.15
2017-01-08T11:29:13.392Z,17.11
2017-01-08T11:30:13.204Z,17.10
2017-01-08T11:31:11.609Z,17.09
2017-01-08T11:32:15.154Z,17.63
2017-01-08T11:33:12.437Z,17.68
2017-01-08T11:34:10.626Z,17.70
2017-01-08T11:35:14.589Z,17.69
2017-01-08T11:36:12.621Z,17.70
2017-01-08T11:37:09.876Z,17.70
2017-01-08T11:38:11.894Z,17.70
2017-01-08T11:39:10.052Z,17.68
2017-01-08T11:40:14.014Z,17.68
2017-01-08T11:41:12.782Z,17.14
2017-01-08T11:42:12.874Z,17.09
2017-01-08T11:43:14.360Z,17.06
2017-01-08T11:44:12.530Z,17.04
2017-01-08T11:45:13.169Z,17.00
2017-01-08T11:46:12.403Z,17.03
2017-01-08T11:47:12.394Z,17.03
2017-01-08T11:48:13.245Z,17.04
2017-01-08T11:49:12.262Z,17.07
2017-01-08T11:50:10.235Z,17.06
2017-01-08T11:51:13.210Z,17.61
2017-01-08T11:52:12.358Z,17.65
2017-01-08T11:53:13.223Z,17.68
2017-01-08T11:54:12.418Z,17.68
2017-01-08T11:55:12.444Z,17.71
2017-01-08T11:56:12.737Z,17.72
2017-01-08T11:57:11.815Z,17.73
2017-01-08T11:58:12.454Z,17.75
2017-01-08T11:59:12.882Z,17.48
2017-01-08T12:00:10.503Z,17.22
2017-01-08T12:01:13.635Z,17.18
2017-01-08T12:02:12.296Z,17.16
2017-01-08T12:03:13.110Z,17.15
2017-01-08T12:04:10.956Z,17.14
2017-01-08T12:05:12.306Z,17.66
2017-01-08T12:06:12.908Z,17.75
2017-01-08T12:07:14.381Z,17.76
2017-01-08T12:08:12.602Z,17.77
2017-01-08T12:09:11.983Z,17.77
2017-01-08T12:10:11.888Z,17.43
2017-01-08T12:11:14.518Z,17.25
2017-01-08T12:12:12.432Z,17.23
2017-01-08T12:13:13.055Z,17.22
2017-01-08T12:14:13.707Z,17.15
2017-01-08T12:15:12.541Z,17.14
2017-01-08T12:16:13.447Z,17.15
2017-01-08T12:17:13.207Z,17.14
2017-01-08T12:18:13.238Z,17.14
2017-01-08T12:19:14.527Z,17.21
2017-01-08T12:22:13.895Z,17.21
2017-01-08T12:23:12.042Z,17.22
2017-01-08T12:24:14.951Z,17.21
2017-01-08T12:25:13.651Z,17.29
2017-01-08T12:26:14.268Z,17.19
2017-01-08T12:27:13.214Z,17.18
2017-01-08T12:28:13.217Z,17.17
2017-01-08T12:29:13.985Z,17.16
2017-01-08T12:30:13.452Z,17.23
2017-01-08T12:31:12.017Z,17.69
2017-01-08T12:32:13.963Z,17.74
2017-01-08T12:33:11.714Z,17.23
2017-01-08T12:34:12.677Z,17.74
2017-01-08T12:35:12.414Z,17.77
2017-01-08T12:36:14.240Z,17.26
2017-01-08T12:37:14.955Z,17.23
2017-01-08T12:38:13.687Z,17.26
2017-01-08T12:39:13.681Z,17.24
2017-01-08T12:40:14.997Z,17.24
2017-01-08T12:41:14.715Z,17.23
2017-01-08T12:42:14.477Z,17.24
2017-01-08T12:43:16.016Z,17.24
2017-01-08T12:44:10.104Z,17.24
2017-01-08T12:45:15.206Z,17.23
2017-01-08T12:46:12.999Z,17.24
2017-01-08T12:47:12.544Z,17.25
2017-01-08T12:48:14.245Z,17.25
2017-01-08T12:49:13.470Z,17.25
2017-01-08T12:50:14.185Z,17.25
2017-01-08T12:51:13.501Z,17.26
2017-01-08T12:52:12.847Z,17.31
2017-01-08T12:53:13.345Z,17.30
2017-01-08T12:54:12.968Z,17.80